Oakville, Michigan
Current Conditions -  °F | °C
As of 5:53 AM on Monday 22 Dec 2014 (Local Time) from KARB Reporting Station
Haze Haze  
Wind Chill: 16°   Ceiling: Unl
Heat Index: 23°   Visibility: 4mi
Dew Point: 21°   Wind: 6mph
Humidity: 92%   Direction: 60°ENE
Pressure: 30.09"   Gusts: NA
Location:  42.0828°N, 83.683°W
Report Text: KARB 221053Z AUTO 06005KT 4SM BR CLR M05/M06 A3009 RMK AO2 SLP200 T10501061
Loading
Personal Weather Stations






























Interactive Weather Map New forecast layout! Learn more

10-Day Weather Forecast

Advertisements
Track Severe Weather on mobile